CMH2 weather

Milton (Afi) Heliport
Milton, Ontario, Canada

Public forecast

Using degrees Celsius for public forecast. Weather courtesy of forecast.io.

METAR (pilot weather report)

Closest report is Lester B. Pearson International Airport, 14.7 nm (27.2 km) NE. Retrieved 2019/05/24 01:00 UTC (14 minutes ago):

CYYZ 240100Z 33025G33KT 15SM FEW055 BKN078 18/08 A2988 RMK CU2AC4 SLP119 DENSITY ALT 1200FT

TAF (pilot weather forecast)

Forecast is more than 12 hours old.

Closest forecast is Lester B. Pearson International Airport, 14.7 nm (27.2 km) NE. Retrieved 2019/05/23 00:39 UTC (1 day ago):

TAF CYYZ 232338Z 2400/2506 28020G30KT P6SM SCT060 BECMG 2401/2402 30012G22KT FM241000 31012KT P6SM BKN015 FM241400 33008KT P6SM SCT025 FM242200 VRB03KT P6SM BKN025 OVC120 RMK NXT FCST BY 240300Z